createdAt,value
2024-04-13T00:01:54.443Z,1.30
2024-04-13T00:04:21.195Z,1.48
2024-04-13T00:06:47.861Z,1.38
2024-04-13T00:09:14.539Z,1.35
2024-04-13T00:11:41.198Z,1.40
2024-04-13T00:14:07.765Z,1.45
2024-04-13T00:16:35.840Z,1.67
2024-04-13T00:19:02.486Z,1.73
2024-04-13T00:21:29.182Z,1.52
2024-04-13T00:23:56.291Z,1.77
2024-04-13T00:26:26.238Z,1.33
2024-04-13T00:31:22.639Z,1.40
2024-04-13T00:33:49.355Z,1.38
2024-04-13T00:36:16.015Z,1.77
2024-04-13T00:38:42.636Z,1.75
2024-04-13T00:41:09.330Z,1.45
2024-04-13T00:43:37.091Z,1.55
2024-04-13T00:46:09.296Z,1.67
2024-04-13T00:48:38.145Z,1.55
2024-04-13T00:51:07.297Z,1.60
2024-04-13T00:53:37.980Z,1.77
2024-04-13T00:56:07.962Z,1.30
2024-04-13T01:01:06.807Z,1.33
2024-04-13T01:03:36.509Z,1.70
2024-04-13T01:06:04.392Z,1.88
2024-04-13T01:08:31.176Z,1.63
2024-04-13T01:10:59.317Z,1.58
2024-04-13T01:13:27.449Z,1.52
2024-04-13T01:15:54.224Z,1.50
2024-04-13T01:18:21.159Z,1.88
2024-04-13T01:20:48.177Z,1.80
2024-04-13T01:23:16.216Z,1.80
2024-04-13T01:25:43.434Z,1.50
2024-04-13T01:28:11.856Z,1.55
2024-04-13T01:30:40.012Z,1.70
2024-04-13T01:33:06.931Z,1.70
2024-04-13T01:35:33.686Z,1.65
2024-04-13T01:38:00.340Z,1.88
2024-04-13T01:40:26.919Z,1.80
2024-04-13T01:42:53.510Z,1.80
2024-04-13T01:45:20.655Z,2.20
2024-04-13T01:47:47.379Z,1.88
2024-04-13T01:50:14.255Z,1.48
2024-04-13T01:52:41.225Z,1.80
2024-04-13T01:55:07.951Z,1.83
2024-04-13T01:57:34.870Z,2.00
2024-04-13T02:00:01.632Z,1.67
2024-04-13T02:02:28.330Z,1.90
2024-04-13T02:04:54.928Z,1.80
2024-04-13T02:07:22.096Z,1.83
2024-04-13T02:09:48.623Z,1.80
2024-04-13T02:12:15.582Z,2.53
2024-04-13T02:14:42.429Z,1.73
2024-04-13T02:17:09.026Z,1.60
2024-04-13T02:19:35.609Z,1.70
2024-04-13T02:22:02.193Z,1.85
2024-04-13T02:24:28.830Z,1.48
2024-04-13T02:26:55.903Z,1.92
2024-04-13T02:29:22.562Z,1.73
2024-04-13T02:31:49.249Z,1.98
2024-04-13T02:34:15.829Z,1.83
2024-04-13T02:36:42.418Z,2.13
2024-04-13T02:39:09.919Z,2.08
2024-04-13T02:41:37.161Z,2.08
2024-04-13T02:44:03.942Z,2.33
2024-04-13T02:46:30.545Z,1.85
2024-04-13T02:48:57.373Z,2.38
2024-04-13T02:51:24.231Z,2.05
2024-04-13T02:53:50.961Z,2.00
2024-04-13T02:56:17.608Z,1.60
2024-04-13T02:58:44.310Z,1.83
2024-04-13T03:01:10.931Z,2.10
2024-04-13T03:03:37.734Z,2.70
2024-04-13T03:06:15.301Z,2.17
2024-04-13T03:08:43.136Z,2.03
2024-04-13T03:11:10.607Z,2.10
2024-04-13T03:13:38.835Z,2.20
2024-04-13T03:16:06.334Z,2.20
2024-04-13T03:18:34.329Z,2.00
2024-04-13T03:21:01.516Z,2.55
2024-04-13T03:23:29.962Z,2.10
2024-04-13T03:25:56.876Z,2.25
2024-04-13T03:28:27.463Z,1.55
2024-04-13T03:30:54.123Z,2.10
2024-04-13T03:33:20.919Z,2.30
2024-04-13T03:35:47.551Z,1.95
2024-04-13T03:38:14.558Z,1.90
2024-04-13T03:40:41.253Z,1.77
2024-04-13T03:43:07.844Z,1.85
2024-04-13T03:45:35.228Z,2.17
2024-04-13T03:48:02.004Z,2.40
2024-04-13T03:50:28.604Z,2.30
2024-04-13T03:52:55.174Z,1.67
2024-04-13T03:55:21.758Z,2.08
2024-04-13T03:57:48.523Z,2.15
2024-04-13T04:00:15.673Z,1.98
2024-04-13T04:02:42.297Z,2.35
2024-04-13T04:05:08.938Z,2.10
2024-04-13T04:07:35.742Z,2.22
2024-04-13T04:10:02.372Z,1.88
2024-04-13T04:12:29.094Z,2.10
2024-04-13T04:14:55.679Z,1.92
2024-04-13T04:17:22.319Z,1.90
2024-04-13T04:19:49.120Z,2.40
2024-04-13T04:22:15.789Z,1.65
2024-04-13T04:24:42.458Z,1.85
2024-04-13T04:27:10.532Z,2.10
2024-04-13T04:29:37.911Z,1.98
2024-04-13T04:32:04.824Z,1.55
2024-04-13T04:34:31.442Z,2.45
2024-04-13T04:36:58.081Z,1.70
2024-04-13T04:39:24.788Z,2.00
2024-04-13T04:41:52.385Z,2.28
2024-04-13T04:44:18.994Z,2.00
2024-04-13T04:46:47.030Z,1.85
2024-04-13T04:49:13.981Z,1.80
2024-04-13T04:51:42.091Z,2.10
2024-04-13T04:54:11.701Z,2.30
2024-04-13T04:56:38.654Z,2.10
2024-04-13T04:59:05.660Z,1.92
2024-04-13T05:01:32.268Z,1.90
2024-04-13T05:03:59.086Z,2.20
2024-04-13T05:06:25.956Z,2.30
2024-04-13T05:08:52.593Z,2.22
2024-04-13T05:11:19.227Z,2.47
2024-04-13T05:13:45.808Z,1.70
2024-04-13T05:16:12.387Z,2.30
2024-04-13T05:18:39.382Z,2.00
2024-04-13T05:21:06.189Z,2.22
2024-04-13T05:23:33.222Z,1.85
2024-04-13T05:25:59.893Z,2.40
2024-04-13T05:28:27.977Z,1.98
2024-04-13T05:30:58.215Z,2.03
2024-04-13T05:33:26.093Z,2.10
2024-04-13T05:35:53.312Z,1.90
2024-04-13T05:38:20.004Z,1.70
2024-04-13T05:40:46.723Z,2.10
2024-04-13T05:43:13.713Z,1.80
2024-04-13T05:45:40.729Z,2.03
2024-04-13T05:48:07.956Z,2.08
2024-04-13T05:50:35.013Z,2.00
2024-04-13T05:53:01.687Z,2.03
2024-04-13T05:55:28.558Z,1.83
2024-04-13T05:57:55.168Z,1.65
2024-04-13T06:00:23.184Z,2.08
2024-04-13T06:02:53.110Z,2.13
2024-04-13T06:07:46.174Z,1.42
2024-04-13T06:10:12.788Z,2.22
2024-04-13T06:12:39.473Z,1.92
2024-04-13T06:15:06.769Z,1.88
2024-04-13T06:17:33.367Z,1.42
2024-04-13T06:19:59.940Z,1.98
2024-04-13T06:22:26.993Z,1.45
2024-04-13T06:24:54.088Z,1.58
2024-04-13T06:27:20.797Z,1.83
2024-04-13T06:29:49.731Z,1.80
2024-04-13T06:32:16.767Z,1.70
2024-04-13T06:34:43.477Z,1.63
2024-04-13T06:37:10.069Z,1.63
2024-04-13T06:39:37.016Z,1.40
2024-04-13T06:42:03.615Z,1.45
2024-04-13T06:44:30.215Z,1.40
2024-04-13T06:46:56.830Z,1.90
2024-04-13T06:49:23.644Z,1.27
2024-04-13T06:51:50.340Z,1.40
2024-04-13T06:54:16.966Z,1.17
2024-04-13T06:56:43.557Z,1.45
2024-04-13T06:59:10.334Z,1.38
2024-04-13T07:01:36.922Z,2.92
2024-04-13T07:04:03.917Z,1.67
2024-04-13T07:06:34.142Z,1.98
2024-04-13T07:09:00.906Z,2.08
2024-04-13T07:11:28.786Z,1.58
2024-04-13T07:13:56.028Z,1.30
2024-04-13T07:16:23.052Z,1.52
2024-04-13T07:18:49.666Z,1.30
2024-04-13T07:21:16.360Z,1.52
2024-04-13T07:23:43.533Z,1.30
2024-04-13T07:26:10.235Z,1.05
2024-04-13T07:28:36.824Z,1.33
2024-04-13T07:31:03.472Z,1.27
2024-04-13T07:33:30.312Z,1.40
2024-04-13T07:35:57.119Z,1.50
2024-04-13T07:38:26.344Z,1.40
2024-04-13T07:40:53.016Z,1.88
2024-04-13T07:43:20.239Z,1.42
2024-04-13T07:45:48.339Z,1.52
2024-04-13T07:48:15.128Z,1.33
2024-04-13T07:50:41.911Z,1.10
2024-04-13T07:53:08.502Z,1.10
2024-04-13T07:55:35.148Z,1.25
2024-04-13T07:58:01.781Z,1.00
2024-04-13T08:00:28.405Z,1.00
2024-04-13T08:02:55.078Z,1.17
2024-04-13T08:05:21.681Z,1.10
2024-04-13T08:07:48.335Z,1.00
2024-04-13T08:10:14.983Z,0.82
2024-04-13T08:12:41.745Z,1.17
2024-04-13T08:15:10.029Z,1.13
2024-04-13T08:17:36.710Z,0.88
2024-04-13T08:20:05.457Z,1.02
2024-04-13T08:22:32.019Z,0.90
2024-04-13T08:24:58.623Z,1.08
2024-04-13T08:27:25.243Z,1.17
2024-04-13T08:29:52.155Z,1.00
2024-04-13T08:32:18.769Z,1.23
2024-04-13T08:34:45.472Z,0.85
2024-04-13T08:37:12.086Z,0.90
2024-04-13T08:39:41.586Z,0.80
2024-04-13T08:42:09.828Z,1.20
2024-04-13T08:44:37.487Z,1.08
2024-04-13T08:47:04.967Z,0.90
2024-04-13T08:49:32.449Z,0.75
2024-04-13T08:52:00.707Z,0.90
2024-04-13T08:54:31.331Z,0.75
2024-04-13T08:56:59.705Z,1.10
2024-04-13T08:59:28.651Z,0.70
2024-04-13T09:01:57.655Z,0.82
2024-04-13T09:04:24.904Z,0.60
2024-04-13T09:06:52.078Z,0.60
2024-04-13T09:09:19.696Z,0.47
2024-04-13T09:11:46.502Z,0.77
2024-04-13T09:14:13.659Z,0.60
2024-04-13T09:16:41.651Z,0.45
2024-04-13T09:19:10.574Z,0.82
2024-04-13T09:21:40.891Z,0.40
2024-04-13T09:24:08.407Z,1.20
2024-04-13T09:26:41.773Z,0.45
2024-04-13T09:29:08.590Z,0.52
2024-04-13T09:31:41.125Z,0.60
2024-04-13T09:34:08.066Z,0.40
2024-04-13T09:36:37.045Z,0.50
2024-04-13T09:39:05.465Z,0.50
2024-04-13T09:41:32.081Z,0.50
2024-04-13T09:43:59.290Z,0.40
2024-04-13T09:46:26.775Z,0.50
2024-04-13T09:48:59.796Z,0.50
2024-04-13T09:51:26.972Z,0.30
2024-04-13T09:53:54.511Z,0.40
2024-04-13T09:56:22.183Z,0.50
2024-04-13T09:58:51.634Z,0.88
2024-04-13T10:01:18.397Z,0.50
2024-04-13T10:03:45.277Z,0.20
2024-04-13T10:06:16.760Z,0.47
2024-04-13T10:08:45.153Z,0.35
2024-04-13T10:11:14.067Z,0.20
2024-04-13T10:13:45.796Z,0.35
2024-04-13T10:16:14.640Z,0.40
2024-04-13T10:18:42.032Z,0.50
2024-04-13T10:21:08.670Z,0.70
2024-04-13T10:23:43.204Z,0.40
2024-04-13T10:26:09.914Z,0.30
2024-04-13T10:28:36.656Z,0.30
2024-04-13T10:31:04.452Z,0.40
2024-04-13T10:33:33.489Z,0.28
2024-04-13T10:36:03.362Z,0.30
2024-04-13T10:38:32.940Z,0.47
2024-04-13T10:40:59.930Z,0.20
2024-04-13T10:43:26.841Z,0.32
2024-04-13T10:45:58.089Z,0.40
2024-04-13T10:48:27.343Z,0.17
2024-04-13T10:50:57.846Z,0.40
2024-04-13T10:53:27.285Z,0.25
2024-04-13T10:55:57.089Z,0.30
2024-04-13T10:58:31.714Z,0.40
2024-04-13T11:00:59.303Z,0.17
2024-04-13T11:03:28.734Z,0.28
2024-04-13T11:05:55.859Z,0.20
2024-04-13T11:08:24.818Z,0.57
2024-04-13T11:11:00.133Z,0.30
2024-04-13T11:13:27.286Z,0.50
2024-04-13T11:15:54.185Z,0.47
2024-04-13T11:18:23.071Z,0.50
2024-04-13T11:21:02.637Z,0.32
2024-04-13T11:23:29.766Z,0.35
2024-04-13T11:25:56.977Z,0.45
2024-04-13T11:28:23.855Z,0.40
2024-04-13T11:30:52.936Z,0.45
2024-04-13T11:33:21.038Z,0.50
2024-04-13T11:35:58.283Z,0.60
2024-04-13T11:38:27.952Z,0.60
2024-04-13T11:40:55.282Z,0.38
2024-04-13T11:43:22.926Z,0.50
2024-04-13T11:45:51.085Z,0.57
2024-04-13T11:48:18.307Z,0.20
2024-04-13T11:50:47.185Z,0.40
2024-04-13T11:53:13.807Z,0.40
2024-04-13T11:55:40.465Z,0.63
2024-04-13T11:58:07.531Z,0.50
2024-04-13T12:00:34.101Z,0.50
2024-04-13T12:03:00.894Z,0.50
2024-04-13T12:05:27.700Z,0.40
2024-04-13T12:07:54.291Z,0.25
2024-04-13T12:10:20.948Z,0.43
2024-04-13T12:12:47.645Z,0.35
2024-04-13T12:15:14.402Z,0.47
2024-04-13T12:17:41.143Z,0.45
2024-04-13T12:20:07.777Z,0.52
2024-04-13T12:22:34.421Z,0.38
2024-04-13T12:25:01.145Z,0.30
2024-04-13T12:27:28.609Z,0.50
2024-04-13T12:29:57.521Z,0.35
2024-04-13T12:32:25.725Z,0.30
2024-04-13T12:34:52.315Z,0.30
2024-04-13T12:37:19.063Z,0.50
2024-04-13T12:39:46.233Z,0.30
2024-04-13T12:42:12.934Z,0.80
2024-04-13T12:44:39.502Z,0.30
2024-04-13T12:47:08.265Z,0.32
2024-04-13T12:49:37.204Z,0.90
2024-04-13T12:52:03.953Z,0.68
2024-04-13T12:54:30.545Z,0.60
2024-04-13T12:56:58.195Z,0.73
2024-04-13T12:59:24.776Z,0.65
2024-04-13T13:01:51.354Z,0.68
2024-04-13T13:04:18.020Z,0.65
2024-04-13T13:06:45.059Z,0.50
2024-04-13T13:09:11.668Z,0.40
2024-04-13T13:11:38.377Z,0.60
2024-04-13T13:14:05.317Z,0.90
2024-04-13T13:16:31.945Z,0.60
2024-04-13T13:18:58.582Z,0.47
2024-04-13T13:21:25.373Z,0.57
2024-04-13T13:23:52.048Z,0.70
2024-04-13T13:26:18.627Z,0.57
2024-04-13T13:28:46.717Z,0.55
2024-04-13T13:31:14.406Z,0.70
2024-04-13T13:33:40.997Z,0.30
2024-04-13T13:36:07.617Z,0.50
2024-04-13T13:38:35.992Z,0.77
2024-04-13T13:41:02.492Z,0.40
2024-04-13T13:43:29.395Z,0.65
2024-04-13T13:45:56.047Z,0.55
2024-04-13T13:48:22.779Z,0.30
2024-04-13T13:50:49.530Z,0.40
2024-04-13T13:53:15.974Z,0.60
2024-04-13T13:55:43.331Z,0.50
2024-04-13T13:58:09.919Z,0.55
2024-04-13T14:00:41.788Z,0.40
2024-04-13T14:03:09.144Z,0.60
2024-04-13T14:05:35.745Z,0.52
2024-04-13T14:08:02.371Z,0.40
2024-04-13T14:10:30.017Z,0.50
2024-04-13T14:12:56.963Z,0.52
2024-04-13T14:15:23.641Z,0.30
2024-04-13T14:17:50.317Z,0.50
2024-04-13T14:20:16.951Z,0.28
2024-04-13T14:22:43.694Z,0.50
2024-04-13T14:25:10.298Z,0.60
2024-04-13T14:27:36.910Z,0.38
2024-04-13T14:30:03.806Z,0.40
2024-04-13T14:32:30.601Z,0.55
2024-04-13T14:34:57.353Z,0.45
2024-04-13T14:37:23.948Z,0.40
2024-04-13T14:39:51.330Z,0.60
2024-04-13T14:42:19.741Z,0.60
2024-04-13T14:44:46.519Z,0.38
2024-04-13T14:47:14.004Z,0.60
2024-04-13T14:49:41.355Z,0.55
2024-04-13T14:52:07.990Z,0.50
2024-04-13T14:54:34.859Z,0.52
2024-04-13T14:57:01.581Z,0.50
2024-04-13T14:59:28.152Z,0.50
2024-04-13T15:01:54.732Z,0.60
2024-04-13T15:04:21.480Z,0.40
2024-04-13T15:06:48.303Z,0.43
2024-04-13T15:09:14.975Z,0.60
2024-04-13T15:11:41.582Z,0.60
2024-04-13T15:14:08.132Z,0.40
2024-04-13T15:16:34.969Z,0.77
2024-04-13T15:19:01.633Z,0.80
2024-04-13T15:21:28.393Z,0.60
2024-04-13T15:23:56.680Z,0.50
2024-04-13T15:26:26.253Z,0.40
2024-04-13T15:28:55.325Z,0.45
2024-04-13T15:31:22.067Z,0.50
2024-04-13T15:33:48.732Z,0.70
2024-04-13T15:36:16.532Z,0.75
2024-04-13T15:38:43.839Z,0.70
2024-04-13T15:41:11.230Z,0.50
2024-04-13T15:43:37.795Z,0.60
2024-04-13T15:46:04.564Z,0.63
2024-04-13T15:48:31.275Z,0.60
2024-04-13T15:51:02.080Z,0.60
2024-04-13T15:53:28.883Z,0.70
2024-04-13T15:55:55.496Z,0.85
2024-04-13T15:58:22.860Z,0.60
2024-04-13T16:00:49.574Z,0.80
2024-04-13T16:03:16.224Z,0.60
2024-04-13T16:05:44.317Z,0.43
2024-04-13T16:08:10.852Z,0.50
2024-04-13T16:10:37.523Z,0.73
2024-04-13T16:13:04.248Z,0.80
2024-04-13T16:15:30.859Z,0.60
2024-04-13T16:17:57.542Z,0.60
2024-04-13T16:20:24.129Z,0.70
2024-04-13T16:22:50.730Z,0.73
2024-04-13T16:25:17.791Z,0.82
2024-04-13T16:27:44.444Z,0.55
2024-04-13T16:30:11.295Z,0.50
2024-04-13T16:32:38.589Z,0.50
2024-04-13T16:35:06.151Z,0.70
2024-04-13T16:37:32.852Z,0.60
2024-04-13T16:40:00.087Z,0.50
2024-04-13T16:42:27.611Z,0.68
2024-04-13T16:44:54.296Z,0.70
2024-04-13T16:47:21.028Z,0.60
2024-04-13T16:49:47.987Z,0.63
2024-04-13T16:52:14.703Z,0.68
2024-04-13T16:54:41.367Z,0.60
2024-04-13T16:57:08.021Z,0.47
2024-04-13T16:59:34.678Z,0.68
2024-04-13T17:02:01.427Z,0.60
2024-04-13T17:04:28.106Z,0.60
2024-04-13T17:06:54.728Z,0.70
2024-04-13T17:09:21.950Z,0.63
2024-04-13T17:11:48.626Z,0.70
2024-04-13T17:14:15.224Z,0.70
2024-04-13T17:16:41.841Z,0.80
2024-04-13T17:19:08.484Z,0.65
2024-04-13T17:21:35.340Z,0.57
2024-04-13T17:24:01.975Z,0.50
2024-04-13T17:26:28.579Z,0.45
2024-04-13T17:28:55.027Z,0.73
2024-04-13T17:31:21.656Z,0.50
2024-04-13T17:33:48.272Z,0.43
2024-04-13T17:36:17.121Z,0.50
2024-04-13T17:38:46.455Z,0.43
2024-04-13T17:41:13.041Z,0.50
2024-04-13T17:43:39.936Z,0.52
2024-04-13T17:46:06.551Z,0.65
2024-04-13T17:48:33.399Z,0.70
2024-04-13T17:51:00.894Z,0.50
2024-04-13T17:53:27.546Z,0.63
2024-04-13T17:55:54.507Z,0.50
2024-04-13T17:58:20.992Z,0.47
2024-04-13T18:00:47.631Z,0.50
2024-04-13T18:03:14.338Z,0.60
2024-04-13T18:05:40.947Z,0.80
2024-04-13T18:08:09.749Z,0.98
2024-04-13T18:10:36.615Z,0.70
2024-04-13T18:13:03.257Z,0.82
2024-04-13T18:15:29.916Z,0.70
2024-04-13T18:17:56.642Z,0.70
2024-04-13T18:20:23.518Z,0.90
2024-04-13T18:22:50.198Z,0.85
2024-04-13T18:25:16.783Z,1.10
2024-04-13T18:27:43.456Z,0.77
2024-04-13T18:30:10.317Z,0.88
2024-04-13T18:32:36.869Z,0.65
2024-04-13T18:35:03.643Z,0.73
2024-04-13T18:37:30.247Z,0.80
2024-04-13T18:39:56.896Z,0.70
2024-04-13T18:42:23.581Z,0.88
2024-04-13T18:44:50.211Z,0.90
2024-04-13T18:47:19.037Z,0.93
2024-04-13T18:49:53.241Z,0.70
2024-04-13T18:52:21.804Z,0.90
2024-04-13T18:54:49.717Z,0.90
2024-04-13T18:57:16.662Z,0.93
2024-04-13T18:59:44.034Z,1.02
2024-04-13T19:02:10.809Z,1.00
2024-04-13T19:04:37.626Z,0.80
2024-04-13T19:07:04.694Z,1.00
2024-04-13T19:09:31.738Z,0.93
2024-04-13T19:11:58.423Z,0.93
2024-04-13T19:14:25.001Z,0.85
2024-04-13T19:16:52.396Z,0.80
2024-04-13T19:19:19.674Z,0.77
2024-04-13T19:21:46.667Z,0.80
2024-04-13T19:24:14.179Z,1.10
2024-04-13T19:26:41.963Z,1.05
2024-04-13T19:29:09.156Z,1.00
2024-04-13T19:31:36.015Z,0.63
2024-04-13T19:34:03.432Z,0.70
2024-04-13T19:36:31.048Z,0.90
2024-04-13T19:38:57.658Z,0.65
2024-04-13T19:41:24.230Z,0.70
2024-04-13T19:43:50.806Z,0.80
2024-04-13T19:46:17.422Z,0.68
2024-04-13T19:48:44.071Z,0.65
2024-04-13T19:51:13.036Z,0.68
2024-04-13T19:53:39.719Z,0.70
2024-04-13T19:56:06.468Z,0.80
2024-04-13T19:58:33.068Z,0.70
2024-04-13T20:01:05.473Z,0.68
2024-04-13T20:03:32.344Z,0.60
2024-04-13T20:06:00.602Z,0.65
2024-04-13T20:08:27.291Z,0.68
2024-04-13T20:11:06.655Z,0.60
2024-04-13T20:13:34.020Z,0.70
2024-04-13T20:16:19.102Z,0.65
2024-04-13T20:18:46.194Z,0.68
2024-04-13T20:21:15.852Z,0.60
2024-04-13T20:23:42.695Z,0.55
2024-04-13T20:26:09.351Z,1.00
2024-04-13T20:28:35.927Z,0.70
2024-04-13T20:31:02.627Z,0.57
2024-04-13T20:33:31.477Z,0.55
2024-04-13T20:35:58.183Z,1.00
2024-04-13T20:38:25.323Z,0.57
2024-04-13T20:40:51.931Z,0.40
2024-04-13T20:43:18.722Z,0.60
2024-04-13T20:45:46.003Z,0.50
2024-04-13T20:48:12.783Z,0.60
2024-04-13T20:50:41.435Z,0.52
2024-04-13T20:53:08.423Z,0.60
2024-04-13T20:55:35.314Z,0.55
2024-04-13T20:58:02.152Z,0.40
2024-04-13T21:00:28.983Z,0.50
2024-04-13T21:02:55.798Z,0.80
2024-04-13T21:05:22.549Z,0.65
2024-04-13T21:07:49.139Z,0.70
2024-04-13T21:10:15.935Z,0.50
2024-04-13T21:12:42.514Z,0.50
2024-04-13T21:15:09.210Z,0.50
2024-04-13T21:17:35.846Z,0.50
2024-04-13T21:20:02.381Z,0.43
2024-04-13T21:22:29.337Z,0.50
2024-04-13T21:25:00.108Z,0.57
2024-04-13T21:27:26.887Z,0.80
2024-04-13T21:29:53.614Z,0.60
2024-04-13T21:32:21.080Z,0.40
2024-04-13T21:34:49.944Z,0.50
2024-04-13T21:37:16.589Z,0.50
2024-04-13T21:39:43.219Z,0.43
2024-04-13T21:42:09.827Z,0.70
2024-04-13T21:44:36.368Z,0.60
2024-04-13T21:47:03.444Z,0.50
2024-04-13T21:49:30.136Z,0.68
2024-04-13T21:51:57.104Z,0.47
2024-04-13T21:54:23.802Z,0.50
2024-04-13T21:56:50.368Z,0.40
2024-04-13T21:59:16.832Z,0.22
2024-04-13T22:01:43.523Z,0.40
2024-04-13T22:04:10.374Z,0.50
2024-04-13T22:06:37.178Z,0.50
2024-04-13T22:09:05.517Z,0.30
2024-04-13T22:11:32.370Z,0.45
2024-04-13T22:13:58.945Z,0.45
2024-04-13T22:16:27.575Z,0.45
2024-04-13T22:18:54.448Z,0.47
2024-04-13T22:21:21.179Z,0.30
2024-04-13T22:23:47.687Z,0.30
2024-04-13T22:26:14.274Z,0.50
2024-04-13T22:28:40.853Z,0.40
2024-04-13T22:31:07.598Z,0.40
2024-04-13T22:33:34.152Z,0.43
2024-04-13T22:36:01.495Z,0.45
2024-04-13T22:38:29.082Z,0.50
2024-04-13T22:40:55.754Z,0.50
2024-04-13T22:43:24.232Z,0.47
2024-04-13T22:45:51.077Z,0.43
2024-04-13T22:48:18.032Z,0.30
2024-04-13T22:50:44.974Z,0.60
2024-04-13T22:53:11.594Z,0.38
2024-04-13T22:55:38.173Z,0.50
2024-04-13T22:58:04.947Z,0.52
2024-04-13T23:00:31.717Z,0.50
2024-04-13T23:02:58.319Z,0.47
2024-04-13T23:05:24.989Z,0.30
2024-04-13T23:07:51.646Z,0.52
2024-04-13T23:10:18.187Z,0.68
2024-04-13T23:12:44.816Z,0.35
2024-04-13T23:15:11.498Z,0.50
2024-04-13T23:17:38.173Z,0.63
2024-04-13T23:20:06.833Z,0.60
2024-04-13T23:22:33.429Z,0.52
2024-04-13T23:25:00.172Z,0.55
2024-04-13T23:27:29.029Z,0.70
2024-04-13T23:29:55.646Z,0.80
2024-04-13T23:32:22.244Z,0.60
2024-04-13T23:34:48.839Z,0.80
2024-04-13T23:37:15.399Z,0.70
2024-04-13T23:39:42.638Z,1.00
2024-04-13T23:42:09.259Z,0.60
2024-04-13T23:44:35.823Z,0.50
2024-04-13T23:47:02.527Z,0.73
2024-04-13T23:49:29.138Z,0.80
2024-04-13T23:51:55.860Z,0.80
2024-04-13T23:54:22.498Z,0.90
2024-04-13T23:56:49.167Z,0.93
2024-04-13T23:59:15.712Z,0.80
